Sounion — SWGE — position and weather

sailwx.info

Track history (hours):
 
Tides and Currents Weather Stations Pressure Air Temp Water Temp Dewpoint Dewpoint Depression Visibility Wind Speed Wind Dir Waves Ship Positions

Sounion

Last reported at 2018-Jan-11 14:25 UTC. Time now 2018-Jan-19 08:05 UTC.
Position N 55°27' W 004°52'.

Length 274 m; draft 9.5 m.

Type: Ship (hazmat cat C). MMSI: 240542000.

Date/timePositionNaut miles runAvg speedWind from/ knotsBaromVisibWave heightAir tempDewpointWater temp
2018-Jan-11 14:25N 55°27' W 004°52'9 7.2
2018-Jan-11 13:08N 55°35' W 004°60'2 7.3
2018-Jan-11 12:51N 55°37' W 005°01'3 6.7
2018-Jan-11 12:28N 55°40' W 005°01'4 7.7
2018-Jan-11 12:01N 55°43' W 004°59'5 9.1
2018-Jan-11 11:31N 55°48' W 004°57'611.5
2018-Jan-11 11:01N 55°53' W 004°56'611.3
2018-Jan-11 10:30N 55°59' W 004°53'1 0.0
2018-Jan-09 11:44N 55°60' W 004°52'311.4
2018-Jan-09 11:30N 55°57' W 004°53'611.9
2018-Jan-09 11:01N 55°52' W 004°57'510.8
2018-Jan-09 10:30N 55°46' W 004°58'4 7.7
2018-Jan-09 10:00N 55°42' W 004°59'2 4.1
2018-Jan-09 09:31N 55°40' W 004°59'2 3.3
2018-Jan-09 09:00N 55°39' W 004°58'2 5.0
2018-Jan-09 08:31N 55°38' W 004°54'1 1.2
2018-Jan-09 07:52N 55°37' W 004°53'0 0.1
2018-Jan-09 07:07N 55°37' W 004°53'0 0.0
2018-Jan-09 06:55N 55°37' W 004°53'0 0.0
2018-Jan-09 06:22N 55°37' W 004°53'0 0.0
2018-Jan-09 05:55N 55°37' W 004°53'0 0.0
2018-Jan-09 05:25N 55°37' W 004°53'0 0.0
2018-Jan-09 04:55N 55°37' W 004°53'0 0.0
2018-Jan-09 04:28N 55°37' W 004°53'0 0.0
2018-Jan-09 03:58N 55°37' W 004°53'0 0.0
2018-Jan-09 03:10N 55°37' W 004°53'0 0.0
2018-Jan-09 02:58N 55°37' W 004°53'0 0.0
2018-Jan-09 02:28N 55°37' W 004°53'0 0.1
2018-Jan-09 01:58N 55°37' W 004°53'0 0.0
2018-Jan-09 01:28N 55°37' W 004°53'0 0.0
2018-Jan-09 00:58N 55°37' W 004°53'0 0.0
2018-Jan-09 00:28N 55°37' W 004°53'0 0.0
2018-Jan-08 23:55N 55°37' W 004°53'0 0.0
2018-Jan-08 23:28N 55°37' W 004°53'0 0.1
2018-Jan-08 22:58N 55°37' W 004°53'0 0.0
2018-Jan-08 22:28N 55°37' W 004°53'0 0.1
2018-Jan-08 21:34N 55°37' W 004°53'0 0.0
2018-Jan-08 21:04N 55°37' W 004°53'0 0.1
2018-Jan-08 20:49N 55°37' W 004°53'0 0.1
2018-Jan-08 20:19N 55°37' W 004°53'0 0.0
2018-Jan-08 19:52N 55°37' W 004°53'0 0.0
2018-Jan-08 19:19N 55°37' W 004°53'0 0.0
2018-Jan-08 18:16N 55°37' W 004°53'0 0.1
2018-Jan-08 17:52N 55°37' W 004°53'0 0.0
2018-Jan-08 17:22N 55°37' W 004°53'0 0.0
2018-Jan-08 16:49N 55°37' W 004°53'0 0.1
2018-Jan-08 16:25N 55°37' W 004°53'0 0.0
2018-Jan-08 14:40N 55°37' W 004°53'0 0.1
2018-Jan-08 14:25N 55°37' W 004°53'0 0.0
2018-Jan-08 13:58N 55°37' W 004°53'0 0.0
2018-Jan-08 12:58N 55°37' W 004°53'0 0.0
2018-Jan-08 12:13N 55°37' W 004°53'0 0.1
2018-Jan-08 11:58N 55°37' W 004°53'0 0.0
2018-Jan-08 11:28N 55°37' W 004°53'0 0.1
2018-Jan-08 10:58N 55°37' W 004°53'0 0.1
2018-Jan-08 10:28N 55°37' W 004°53'0 0.0
2018-Jan-08 09:58N 55°37' W 004°53'0 0.0
2018-Jan-08 09:28N 55°37' W 004°53'0 0.0
2018-Jan-08 08:49N 55°37' W 004°53'0 0.0
2018-Jan-08 08:16N 55°37' W 004°53'0 0.1
2018-Jan-08 07:49N 55°37' W 004°53'0 0.0
2018-Jan-08 07:28N 55°37' W 004°53'0 0.1
2018-Jan-08 06:58N 55°37' W 004°53'0 0.0
2018-Jan-08 06:19N 55°37' W 004°53'0 0.1
2018-Jan-08 05:49N 55°37' W 004°53'0 0.1
2018-Jan-08 05:19N 55°37' W 004°53'0 0.0
2018-Jan-08 04:46N 55°37' W 004°53'0 0.1
2018-Jan-08 04:22N 55°37' W 004°53'0 0.0
2018-Jan-08 03:52N 55°37' W 004°53'0 0.0
2018-Jan-08 03:04N 55°37' W 004°53'0 0.0
2018-Jan-08 02:55N 55°37' W 004°53'0 0.0
2018-Jan-08 01:55N 55°37' W 004°53'0 0.0
2018-Jan-08 01:25N 55°37' W 004°53'0 0.0
2018-Jan-08 00:55N 55°37' W 004°53'0 0.0
2018-Jan-08 00:25N 55°37' W 004°53'0 0.0
2018-Jan-07 23:55N 55°37' W 004°53'0 0.1
2018-Jan-07 23:28N 55°37' W 004°53'0 0.1
2018-Jan-07 22:52N 55°37' W 004°53'0 0.1
2018-Jan-07 22:28N 55°37' W 004°53'0 0.1
2018-Jan-07 21:43N 55°37' W 004°53'0 0.0
2018-Jan-07 21:13N 55°37' W 004°53'0 0.0
2018-Jan-07 20:58N 55°37' W 004°53'0 0.0
2018-Jan-07 20:28N 55°37' W 004°53'0 0.0
2018-Jan-07 19:55N 55°37' W 004°53'0 0.0
2018-Jan-07 18:46N 55°37' W 004°53'0 0.1
2018-Jan-07 18:16N 55°37' W 004°53'0 0.0
2018-Jan-07 17:49N 55°37' W 004°53'0 0.1
2018-Jan-07 17:16N 55°37' W 004°53'0 0.1
2018-Jan-07 16:49N 55°37' W 004°53'0 0.1
2018-Jan-07 16:19N 55°37' W 004°53'0 0.1
2018-Jan-07 15:49N 55°37' W 004°53'0 0.0
2018-Jan-07 15:16N 55°37' W 004°53'0 0.0
2018-Jan-07 14:52N 55°37' W 004°53'0 0.0
2018-Jan-07 14:22N 55°37' W 004°53'0 0.0
2018-Jan-07 13:19N 55°37' W 004°53'0 0.1
2018-Jan-07 12:52N 55°37' W 004°53'0 0.1
2018-Jan-07 12:22N 55°37' W 004°53'0 0.1
2018-Jan-07 11:55N 55°37' W 004°53'0 0.1
2018-Jan-07 09:58N 55°37' W 004°53'0 0.0
2018-Jan-07 09:28N 55°37' W 004°53'0 0.0
2018-Jan-07 08:58N 55°37' W 004°53'0 0.0
2018-Jan-07 08:28N 55°37' W 004°53'0 0.0
2018-Jan-07 07:58N 55°37' W 004°53'0 0.0
2018-Jan-07 07:28N 55°37' W 004°53'0 0.1
2018-Jan-07 03:01N 55°37' W 004°53'0 0.1
2018-Jan-07 02:46N 55°37' W 004°53'0 0.1
2018-Jan-07 01:34N 55°37' W 004°53'0 0.1
2018-Jan-07 01:22N 55°37' W 004°53'0 0.0
2018-Jan-06 23:37N 55°37' W 004°53'0 0.0
2018-Jan-06 23:07N 55°37' W 004°53'0 0.1
2018-Jan-06 22:52N 55°37' W 004°53'0 0.0
2018-Jan-06 22:22N 55°37' W 004°53'0 0.1
2018-Jan-06 21:52N 55°37' W 004°53'0 0.1
2018-Jan-06 21:19N 55°37' W 004°53'0 0.0
2018-Jan-06 20:40N 55°37' W 004°53'0 0.0
2018-Jan-06 19:25N 55°37' W 004°53'0 0.0
2018-Jan-06 18:22N 55°37' W 004°53'0 0.0
2018-Jan-06 17:58N 55°37' W 004°53'0 0.0
2018-Jan-06 17:25N 55°37' W 004°53'0 0.2
2018-Jan-06 16:58N 55°37' W 004°53'0 0.1
2018-Jan-06 16:28N 55°37' W 004°53'0 0.0
2018-Jan-06 14:13N 55°37' W 004°53'0 0.0
2018-Jan-06 13:43N 55°37' W 004°53'0 0.1
2018-Jan-06 13:28N 55°37' W 004°53'0 0.0
2018-Jan-06 12:46N 55°37' W 004°53'0 0.0
2018-Jan-06 12:04N 55°37' W 004°53'0 0.1
2018-Jan-06 11:37N 55°37' W 004°53'0 0.0
2018-Jan-06 11:16N 55°37' W 004°53'0 0.0
2018-Jan-06 10:49N 55°37' W 004°53'0 0.0
2018-Jan-06 10:16N 55°37' W 004°53'0 0.1
2018-Jan-06 09:52N 55°37' W 004°53'0 0.0
2018-Jan-06 09:22N 55°37' W 004°53'0 0.1
2018-Jan-06 08:52N 55°37' W 004°53'0 0.0
2018-Jan-06 08:07N 55°37' W 004°53'0 0.1
2018-Jan-06 07:40N 55°37' W 004°53'0 0.1
2018-Jan-06 07:22N 55°37' W 004°53'0 0.0
2018-Jan-06 06:37N 55°37' W 004°53'0 0.0
2018-Jan-06 06:25N 55°37' W 004°53'0 0.0
2018-Jan-06 05:43N 55°37' W 004°53'0 0.0
2018-Jan-06 05:28N 55°37' W 004°53'0 0.0
2018-Jan-06 04:43N 55°37' W 004°53'0 0.1
2018-Jan-06 04:28N 55°37' W 004°53'0 0.1
2018-Jan-06 03:43N 55°37' W 004°53'0 0.0
2018-Jan-06 03:25N 55°37' W 004°53'0 0.1
2018-Jan-06 02:58N 55°37' W 004°53'0 0.0
2018-Jan-06 02:28N 55°37' W 004°53'0 0.1
2018-Jan-06 01:55N 55°37' W 004°53'0 0.1
2018-Jan-06 01:13N 55°37' W 004°53'0 0.0
2018-Jan-06 00:01N 55°37' W 004°53'0 0.1
2018-Jan-05 23:58N 55°37' W 004°53'0 0.1
2018-Jan-05 23:19N 55°37' W 004°53'0 0.1
2018-Jan-05 22:52N 55°37' W 004°53'0 0.1
2018-Jan-05 22:19N 55°37' W 004°53'0 0.0
2018-Jan-05 21:49N 55°37' W 004°53'0 0.1
2018-Jan-05 21:19N 55°37' W 004°53'0 0.3
2018-Jan-05 20:52N 55°37' W 004°53'0 0.7
2018-Jan-05 20:30N 55°37' W 004°53'1 2.9
2018-Jan-05 20:00N 55°35' W 004°53'2 4.3
2018-Jan-05 19:29N 55°33' W 004°53'3 5.4
2018-Jan-05 18:58N 55°30' W 004°54'6 9.5
2018-Jan-05 18:23N 55°25' W 004°55'2110.5
2018-Jan-05 16:26N 55°10' W 005°20'511.6
2018-Jan-05 16:00N 55°05' W 005°22'611.8
2018-Jan-05 15:30N 54°59' W 005°25'612.1
2018-Jan-05 15:00N 54°53' W 005°23'713.4
2018-Jan-05 14:30N 54°47' W 005°17'612.5
2018-Jan-05 14:01N 54°42' W 005°12'612.3
2018-Jan-05 13:30N 54°37' W 005°07'612.1
2018-Jan-05 13:00N 54°31' W 005°02'612.1
2018-Jan-05 12:30N 54°25' W 005°02'612.2
2018-Jan-05 12:01N 54°19' W 005°03'612.3
2018-Jan-05 11:30N 54°13' W 005°03'712.1
2018-Jan-05 10:57N 54°06' W 005°04'10111.2
2018-Jan-05 01:52N 52°26' W 005°31'1312.0
2018-Jan-05 00:49N 52°14' W 005°36'412.1
2018-Jan-05 00:30N 52°10' W 005°37'  
Track history (hours):
 
Tides and Currents Weather Stations Pressure Air Temp Water Temp Dewpoint Dewpoint Depression Visibility Wind Speed Wind Dir Waves Ship Positions

Sounion

Last reported at 2018-Jan-11 14:25 UTC. Time now 2018-Jan-19 08:05 UTC.
Position N 55°27' W 004°52'.

Length 274 m; draft 9.5 m.

Type: Ship (hazmat cat C). MMSI: 240542000.

Date/timePositionNaut miles runAvg speedWind from/ knotsBaromVisibWave heightAir tempDewpointWater temp
2018-Jan-11 14:25N 55°27' W 004°52'9 7.2
2018-Jan-11 13:08N 55°35' W 004°60'2 7.3
2018-Jan-11 12:51N 55°37' W 005°01'3 6.7
2018-Jan-11 12:28N 55°40' W 005°01'4 7.7
2018-Jan-11 12:01N 55°43' W 004°59'5 9.1
2018-Jan-11 11:31N 55°48' W 004°57'611.5
2018-Jan-11 11:01N 55°53' W 004°56'611.3
2018-Jan-11 10:30N 55°59' W 004°53'1 0.0
2018-Jan-09 11:44N 55°60' W 004°52'311.4
2018-Jan-09 11:30N 55°57' W 004°53'611.9
2018-Jan-09 11:01N 55°52' W 004°57'510.8
2018-Jan-09 10:30N 55°46' W 004°58'4 7.7
2018-Jan-09 10:00N 55°42' W 004°59'2 4.1
2018-Jan-09 09:31N 55°40' W 004°59'2 3.3
2018-Jan-09 09:00N 55°39' W 004°58'2 5.0
2018-Jan-09 08:31N 55°38' W 004°54'1 1.2
2018-Jan-09 07:52N 55°37' W 004°53'0 0.1
2018-Jan-09 07:07N 55°37' W 004°53'0 0.0
2018-Jan-09 06:55N 55°37' W 004°53'0 0.0
2018-Jan-09 06:22N 55°37' W 004°53'0 0.0
2018-Jan-09 05:55N 55°37' W 004°53'0 0.0
2018-Jan-09 05:25N 55°37' W 004°53'0 0.0
2018-Jan-09 04:55N 55°37' W 004°53'0 0.0
2018-Jan-09 04:28N 55°37' W 004°53'0 0.0
2018-Jan-09 03:58N 55°37' W 004°53'0 0.0
2018-Jan-09 03:10N 55°37' W 004°53'0 0.0
2018-Jan-09 02:58N 55°37' W 004°53'0 0.0
2018-Jan-09 02:28N 55°37' W 004°53'0 0.1
2018-Jan-09 01:58N 55°37' W 004°53'0 0.0
2018-Jan-09 01:28N 55°37' W 004°53'0 0.0
2018-Jan-09 00:58N 55°37' W 004°53'0 0.0
2018-Jan-09 00:28N 55°37' W 004°53'0 0.0
2018-Jan-08 23:55N 55°37' W 004°53'0 0.0
2018-Jan-08 23:28N 55°37' W 004°53'0 0.1
2018-Jan-08 22:58N 55°37' W 004°53'0 0.0
2018-Jan-08 22:28N 55°37' W 004°53'0 0.1
2018-Jan-08 21:34N 55°37' W 004°53'0 0.0
2018-Jan-08 21:04N 55°37' W 004°53'0 0.1
2018-Jan-08 20:49N 55°37' W 004°53'0 0.1
2018-Jan-08 20:19N 55°37' W 004°53'0 0.0
2018-Jan-08 19:52N 55°37' W 004°53'0 0.0
2018-Jan-08 19:19N 55°37' W 004°53'0 0.0
2018-Jan-08 18:16N 55°37' W 004°53'0 0.1
2018-Jan-08 17:52N 55°37' W 004°53'0 0.0
2018-Jan-08 17:22N 55°37' W 004°53'0 0.0
2018-Jan-08 16:49N 55°37' W 004°53'0 0.1
2018-Jan-08 16:25N 55°37' W 004°53'0 0.0
2018-Jan-08 14:40N 55°37' W 004°53'0 0.1
2018-Jan-08 14:25N 55°37' W 004°53'0 0.0
2018-Jan-08 13:58N 55°37' W 004°53'0 0.0
2018-Jan-08 12:58N 55°37' W 004°53'0 0.0
2018-Jan-08 12:13N 55°37' W 004°53'0 0.1
2018-Jan-08 11:58N 55°37' W 004°53'0 0.0
2018-Jan-08 11:28N 55°37' W 004°53'0 0.1
2018-Jan-08 10:58N 55°37' W 004°53'0 0.1
2018-Jan-08 10:28N 55°37' W 004°53'0 0.0
2018-Jan-08 09:58N 55°37' W 004°53'0 0.0
2018-Jan-08 09:28N 55°37' W 004°53'0 0.0
2018-Jan-08 08:49N 55°37' W 004°53'0 0.0
2018-Jan-08 08:16N 55°37' W 004°53'0 0.1
2018-Jan-08 07:49N 55°37' W 004°53'0 0.0
2018-Jan-08 07:28N 55°37' W 004°53'0 0.1
2018-Jan-08 06:58N 55°37' W 004°53'0 0.0
2018-Jan-08 06:19N 55°37' W 004°53'0 0.1
2018-Jan-08 05:49N 55°37' W 004°53'0 0.1
2018-Jan-08 05:19N 55°37' W 004°53'0 0.0
2018-Jan-08 04:46N 55°37' W 004°53'0 0.1
2018-Jan-08 04:22N 55°37' W 004°53'0 0.0
2018-Jan-08 03:52N 55°37' W 004°53'0 0.0
2018-Jan-08 03:04N 55°37' W 004°53'0 0.0
2018-Jan-08 02:55N 55°37' W 004°53'0 0.0
2018-Jan-08 01:55N 55°37' W 004°53'0 0.0
2018-Jan-08 01:25N 55°37' W 004°53'0 0.0
2018-Jan-08 00:55N 55°37' W 004°53'0 0.0
2018-Jan-08 00:25N 55°37' W 004°53'0 0.0
2018-Jan-07 23:55N 55°37' W 004°53'0 0.1
2018-Jan-07 23:28N 55°37' W 004°53'0 0.1
2018-Jan-07 22:52N 55°37' W 004°53'0 0.1
2018-Jan-07 22:28N 55°37' W 004°53'0 0.1
2018-Jan-07 21:43N 55°37' W 004°53'0 0.0
2018-Jan-07 21:13N 55°37' W 004°53'0 0.0
2018-Jan-07 20:58N 55°37' W 004°53'0 0.0
2018-Jan-07 20:28N 55°37' W 004°53'0 0.0
2018-Jan-07 19:55N 55°37' W 004°53'0 0.0
2018-Jan-07 18:46N 55°37' W 004°53'0 0.1
2018-Jan-07 18:16N 55°37' W 004°53'0 0.0
2018-Jan-07 17:49N 55°37' W 004°53'0 0.1
2018-Jan-07 17:16N 55°37' W 004°53'0 0.1
2018-Jan-07 16:49N 55°37' W 004°53'0 0.1
2018-Jan-07 16:19N 55°37' W 004°53'0 0.1
2018-Jan-07 15:49N 55°37' W 004°53'0 0.0
2018-Jan-07 15:16N 55°37' W 004°53'0 0.0
2018-Jan-07 14:52N 55°37' W 004°53'0 0.0
2018-Jan-07 14:22N 55°37' W 004°53'0 0.0
2018-Jan-07 13:19N 55°37' W 004°53'0 0.1
2018-Jan-07 12:52N 55°37' W 004°53'0 0.1
2018-Jan-07 12:22N 55°37' W 004°53'0 0.1
2018-Jan-07 11:55N 55°37' W 004°53'0 0.1
2018-Jan-07 09:58N 55°37' W 004°53'0 0.0
2018-Jan-07 09:28N 55°37' W 004°53'0 0.0
2018-Jan-07 08:58N 55°37' W 004°53'0 0.0
2018-Jan-07 08:28N 55°37' W 004°53'0 0.0
2018-Jan-07 07:58N 55°37' W 004°53'0 0.0
2018-Jan-07 07:28N 55°37' W 004°53'0 0.1
2018-Jan-07 03:01N 55°37' W 004°53'0 0.1
2018-Jan-07 02:46N 55°37' W 004°53'0 0.1
2018-Jan-07 01:34N 55°37' W 004°53'0 0.1
2018-Jan-07 01:22N 55°37' W 004°53'0 0.0
2018-Jan-06 23:37N 55°37' W 004°53'0 0.0
2018-Jan-06 23:07N 55°37' W 004°53'0 0.1
2018-Jan-06 22:52N 55°37' W 004°53'0 0.0
2018-Jan-06 22:22N 55°37' W 004°53'0 0.1
2018-Jan-06 21:52N 55°37' W 004°53'0 0.1
2018-Jan-06 21:19N 55°37' W 004°53'0 0.0
2018-Jan-06 20:40N 55°37' W 004°53'0 0.0
2018-Jan-06 19:25N 55°37' W 004°53'0 0.0
2018-Jan-06 18:22N 55°37' W 004°53'0 0.0
2018-Jan-06 17:58N 55°37' W 004°53'0 0.0
2018-Jan-06 17:25N 55°37' W 004°53'0 0.2
2018-Jan-06 16:58N 55°37' W 004°53'0 0.1
2018-Jan-06 16:28N 55°37' W 004°53'0 0.0
2018-Jan-06 14:13N 55°37' W 004°53'0 0.0
2018-Jan-06 13:43N 55°37' W 004°53'0 0.1
2018-Jan-06 13:28N 55°37' W 004°53'0 0.0
2018-Jan-06 12:46N 55°37' W 004°53'0 0.0
2018-Jan-06 12:04N 55°37' W 004°53'0 0.1
2018-Jan-06 11:37N 55°37' W 004°53'0 0.0
2018-Jan-06 11:16N 55°37' W 004°53'0 0.0
2018-Jan-06 10:49N 55°37' W 004°53'0 0.0
2018-Jan-06 10:16N 55°37' W 004°53'0 0.1
2018-Jan-06 09:52N 55°37' W 004°53'0 0.0
2018-Jan-06 09:22N 55°37' W 004°53'0 0.1
2018-Jan-06 08:52N 55°37' W 004°53'0 0.0
2018-Jan-06 08:07N 55°37' W 004°53'0 0.1
2018-Jan-06 07:40N 55°37' W 004°53'0 0.1
2018-Jan-06 07:22N 55°37' W 004°53'0 0.0
2018-Jan-06 06:37N 55°37' W 004°53'0 0.0
2018-Jan-06 06:25N 55°37' W 004°53'0 0.0
2018-Jan-06 05:43N 55°37' W 004°53'0 0.0
2018-Jan-06 05:28N 55°37' W 004°53'0 0.0
2018-Jan-06 04:43N 55°37' W 004°53'0 0.1
2018-Jan-06 04:28N 55°37' W 004°53'0 0.1
2018-Jan-06 03:43N 55°37' W 004°53'0 0.0
2018-Jan-06 03:25N 55°37' W 004°53'0 0.1
2018-Jan-06 02:58N 55°37' W 004°53'0 0.0
2018-Jan-06 02:28N 55°37' W 004°53'0 0.1
2018-Jan-06 01:55N 55°37' W 004°53'0 0.1
2018-Jan-06 01:13N 55°37' W 004°53'0 0.0
2018-Jan-06 00:01N 55°37' W 004°53'0 0.1
2018-Jan-05 23:58N 55°37' W 004°53'0 0.1
2018-Jan-05 23:19N 55°37' W 004°53'0 0.1
2018-Jan-05 22:52N 55°37' W 004°53'0 0.1
2018-Jan-05 22:19N 55°37' W 004°53'0 0.0
2018-Jan-05 21:49N 55°37' W 004°53'0 0.1
2018-Jan-05 21:19N 55°37' W 004°53'0 0.3
2018-Jan-05 20:52N 55°37' W 004°53'0 0.7
2018-Jan-05 20:30N 55°37' W 004°53'1 2.9
2018-Jan-05 20:00N 55°35' W 004°53'2 4.3
2018-Jan-05 19:29N 55°33' W 004°53'3 5.4
2018-Jan-05 18:58N 55°30' W 004°54'6 9.5
2018-Jan-05 18:23N 55°25' W 004°55'2110.5
2018-Jan-05 16:26N 55°10' W 005°20'511.6
2018-Jan-05 16:00N 55°05' W 005°22'611.8
2018-Jan-05 15:30N 54°59' W 005°25'612.1
2018-Jan-05 15:00N 54°53' W 005°23'713.4
2018-Jan-05 14:30N 54°47' W 005°17'612.5
2018-Jan-05 14:01N 54°42' W 005°12'612.3
2018-Jan-05 13:30N 54°37' W 005°07'612.1
2018-Jan-05 13:00N 54°31' W 005°02'612.1
2018-Jan-05 12:30N 54°25' W 005°02'612.2
2018-Jan-05 12:01N 54°19' W 005°03'612.3
2018-Jan-05 11:30N 54°13' W 005°03'712.1
2018-Jan-05 10:57N 54°06' W 005°04'10111.2
2018-Jan-05 01:52N 52°26' W 005°31'1312.0
2018-Jan-05 00:49N 52°14' W 005°36'412.1
2018-Jan-05 00:30N 52°10' W 005°37'  

Dump ship's entire track history